createdAt,value
2023-03-22T00:00:31.622Z,100.00
2023-03-22T00:03:05.802Z,100.00
2023-03-22T00:05:40.259Z,100.00
2023-03-22T00:08:13.699Z,100.00
2023-03-22T00:10:49.159Z,100.00
2023-03-22T00:13:22.293Z,100.00
2023-03-22T00:15:57.759Z,100.00
2023-03-22T00:18:31.001Z,100.00
2023-03-22T00:21:04.481Z,100.00
2023-03-22T00:23:37.680Z,100.00
2023-03-22T00:26:12.691Z,100.00
2023-03-22T00:28:45.665Z,100.00
2023-03-22T00:31:20.666Z,100.00
2023-03-22T00:33:53.574Z,100.00
2023-03-22T00:36:26.914Z,100.00
2023-03-22T00:38:59.827Z,100.00
2023-03-22T00:41:34.334Z,100.00
2023-03-22T00:44:07.086Z,100.00
2023-03-22T00:46:39.986Z,100.00
2023-03-22T00:49:12.857Z,100.00
2023-03-22T00:51:46.296Z,100.00
2023-03-22T00:54:19.436Z,100.00
2023-03-22T00:56:53.648Z,100.00
2023-03-22T00:59:28.607Z,100.00
2023-03-22T01:02:04.210Z,100.00
2023-03-22T01:04:37.304Z,100.00
2023-03-22T01:07:10.569Z,100.00
2023-03-22T01:09:43.486Z,100.00
2023-03-22T01:12:21.259Z,100.00
2023-03-22T01:14:54.193Z,100.00
2023-03-22T01:17:27.098Z,100.00
2023-03-22T01:20:00.226Z,100.00
2023-03-22T01:22:33.085Z,100.00
2023-03-22T01:25:06.674Z,100.00
2023-03-22T01:27:41.004Z,100.00
2023-03-22T01:30:14.799Z,100.00
2023-03-22T01:32:47.679Z,100.00
2023-03-22T01:35:22.373Z,100.00
2023-03-22T01:37:55.617Z,100.00
2023-03-22T01:40:28.889Z,100.00
2023-03-22T01:43:03.978Z,100.00
2023-03-22T01:45:40.394Z,100.00
2023-03-22T01:48:25.344Z,100.00
2023-03-22T01:51:07.281Z,100.00
2023-03-22T01:53:50.852Z,100.00
2023-03-22T01:56:28.910Z,100.00
2023-03-22T01:59:04.837Z,100.00
2023-03-22T02:01:54.609Z,100.00
2023-03-22T02:04:34.318Z,100.00
2023-03-22T02:07:15.813Z,100.00
2023-03-22T02:09:51.702Z,100.00
2023-03-22T02:12:38.665Z,100.00
2023-03-22T02:15:30.951Z,100.00
2023-03-22T02:18:32.593Z,100.00
2023-03-22T02:22:01.879Z,100.00
2023-03-22T02:25:06.884Z,100.00
2023-03-22T02:28:02.523Z,100.00
2023-03-22T02:30:56.970Z,100.00
2023-03-22T02:34:17.622Z,100.00
2023-03-22T02:37:04.136Z,100.00
2023-03-22T02:39:46.242Z,100.00
2023-03-22T02:42:39.089Z,100.00
2023-03-22T02:45:17.092Z,100.00
2023-03-22T02:47:56.405Z,100.00
2023-03-22T02:50:34.154Z,100.00
2023-03-22T02:53:15.621Z,100.00
2023-03-22T02:55:55.241Z,100.00
2023-03-22T02:58:35.550Z,100.00
2023-03-22T03:01:13.260Z,100.00
2023-03-22T03:03:49.469Z,100.00
2023-03-22T03:06:25.754Z,100.00
2023-03-22T03:09:02.649Z,100.00
2023-03-22T03:11:36.937Z,100.00
2023-03-22T03:14:21.540Z,100.00
2023-03-22T03:17:06.268Z,100.00
2023-03-22T03:19:46.351Z,100.00
2023-03-22T03:22:35.864Z,100.00
2023-03-22T03:25:18.294Z,100.00
2023-03-22T03:28:01.812Z,100.00
2023-03-22T03:30:41.028Z,100.00
2023-03-22T03:33:19.398Z,100.00
2023-03-22T03:35:56.387Z,100.00
2023-03-22T03:38:33.180Z,100.00
2023-03-22T03:41:10.285Z,100.00
2023-03-22T03:43:47.214Z,100.00
2023-03-22T03:46:20.536Z,100.00
2023-03-22T03:48:54.460Z,100.00
2023-03-22T03:51:28.728Z,100.00
2023-03-22T03:54:01.562Z,100.00
2023-03-22T03:56:34.419Z,100.00
2023-03-22T03:59:09.191Z,100.00
2023-03-22T04:01:42.089Z,100.00
2023-03-22T04:04:26.924Z,100.00
2023-03-22T04:07:07.357Z,100.00
2023-03-22T04:09:43.749Z,100.00
2023-03-22T04:12:35.601Z,100.00
2023-03-22T04:15:30.234Z,100.00
2023-03-22T04:18:07.076Z,100.00
2023-03-22T04:20:41.987Z,100.00
2023-03-22T04:23:14.912Z,100.00
2023-03-22T04:25:50.301Z,100.00
2023-03-22T04:28:30.053Z,100.00
2023-03-22T04:31:04.606Z,100.00
2023-03-22T04:33:55.233Z,100.00
2023-03-22T04:36:40.823Z,100.00
2023-03-22T04:39:23.069Z,100.00
2023-03-22T04:42:05.665Z,100.00
2023-03-22T04:44:39.840Z,100.00
2023-03-22T04:47:15.046Z,100.00
2023-03-22T04:49:48.256Z,100.00
2023-03-22T04:52:23.249Z,100.00
2023-03-22T04:54:59.153Z,100.00
2023-03-22T04:57:32.610Z,100.00
2023-03-22T05:00:08.787Z,100.00
2023-03-22T05:02:44.382Z,100.00
2023-03-22T05:05:26.873Z,100.00
2023-03-22T05:08:00.753Z,100.00
2023-03-22T05:10:33.748Z,100.00
2023-03-22T05:13:06.741Z,100.00
2023-03-22T05:15:45.976Z,100.00
2023-03-22T05:18:25.081Z,100.00
2023-03-22T05:20:58.742Z,100.00
2023-03-22T05:23:31.600Z,100.00
2023-03-22T05:26:05.471Z,100.00
2023-03-22T05:28:39.500Z,100.00
2023-03-22T05:31:21.774Z,100.00
2023-03-22T05:34:08.201Z,100.00
2023-03-22T05:36:42.612Z,100.00
2023-03-22T05:39:35.770Z,100.00
2023-03-22T05:42:08.824Z,100.00
2023-03-22T05:44:42.532Z,100.00
2023-03-22T05:47:18.735Z,100.00
2023-03-22T05:50:01.796Z,100.00
2023-03-22T05:52:36.741Z,100.00
2023-03-22T05:55:22.367Z,100.00
2023-03-22T05:57:59.746Z,100.00
2023-03-22T06:00:33.548Z,100.00
2023-03-22T06:03:27.709Z,100.00
2023-03-22T06:06:17.312Z,100.00
2023-03-22T06:09:17.726Z,100.00
2023-03-22T06:11:55.233Z,100.00
2023-03-22T06:14:29.319Z,100.00
2023-03-22T06:17:14.173Z,100.00
2023-03-22T06:19:47.556Z,100.00
2023-03-22T06:22:23.317Z,100.00
2023-03-22T06:24:56.537Z,100.00
2023-03-22T06:27:39.258Z,100.00
2023-03-22T06:30:13.052Z,100.00
2023-03-22T06:33:05.243Z,100.00
2023-03-22T06:35:41.641Z,100.00
2023-03-22T06:38:19.767Z,100.00
2023-03-22T06:40:53.192Z,100.00
2023-03-22T06:43:26.454Z,100.00
2023-03-22T06:46:12.000Z,100.00
2023-03-22T06:48:52.129Z,100.00
2023-03-22T06:51:25.038Z,100.00
2023-03-22T06:53:59.481Z,100.00
2023-03-22T06:56:32.503Z,99.82
2023-03-22T06:59:07.226Z,98.12
2023-03-22T07:01:40.314Z,96.35
2023-03-22T07:04:13.346Z,95.47
2023-03-22T07:06:46.810Z,94.14
2023-03-22T07:09:24.059Z,93.43
2023-03-22T07:11:59.759Z,92.67
2023-03-22T07:14:32.735Z,92.55
2023-03-22T07:17:14.427Z,92.02
2023-03-22T07:19:47.412Z,92.63
2023-03-22T07:22:22.269Z,91.72
2023-03-22T07:25:01.565Z,92.91
2023-03-22T07:27:37.453Z,92.76
2023-03-22T07:30:11.657Z,92.94
2023-03-22T07:32:49.442Z,91.97
2023-03-22T07:35:22.254Z,92.85
2023-03-22T07:37:56.110Z,92.16
2023-03-22T07:40:36.286Z,93.36
2023-03-22T07:43:12.300Z,92.76
2023-03-22T07:46:08.061Z,92.11
2023-03-22T07:48:59.962Z,90.74
2023-03-22T07:51:52.807Z,91.00
2023-03-22T07:54:33.333Z,91.84
2023-03-22T07:57:09.603Z,89.08
2023-03-22T07:59:48.380Z,87.08
2023-03-22T08:02:21.734Z,86.81
2023-03-22T08:04:59.417Z,85.03
2023-03-22T08:07:42.449Z,84.01
2023-03-22T08:10:17.377Z,81.41
2023-03-22T08:12:51.741Z,81.01
2023-03-22T08:15:29.533Z,80.92
2023-03-22T08:18:02.481Z,81.32
2023-03-22T08:20:42.441Z,80.06
2023-03-22T08:23:28.798Z,79.66
2023-03-22T08:26:26.200Z,78.03
2023-03-22T08:29:02.724Z,78.19
2023-03-22T08:31:38.852Z,77.19
2023-03-22T08:34:11.771Z,77.50
2023-03-22T08:36:45.034Z,78.08
2023-03-22T08:39:18.178Z,78.03
2023-03-22T08:41:58.796Z,77.71
2023-03-22T08:44:34.603Z,74.90
2023-03-22T08:47:09.249Z,74.53
2023-03-22T08:49:43.569Z,75.92
2023-03-22T08:52:29.108Z,73.57
2023-03-22T08:55:24.860Z,72.52
2023-03-22T08:58:19.623Z,75.18
2023-03-22T09:01:13.892Z,72.89
2023-03-22T09:04:10.720Z,72.47
2023-03-22T09:06:45.690Z,70.99
2023-03-22T09:09:19.282Z,71.41
2023-03-22T09:11:56.495Z,70.98
2023-03-22T09:14:29.662Z,70.90
2023-03-22T09:17:06.251Z,71.46
2023-03-22T09:19:39.266Z,70.46
2023-03-22T09:22:12.865Z,69.56
2023-03-22T09:24:51.863Z,69.15
2023-03-22T09:27:25.023Z,69.43
2023-03-22T09:29:58.031Z,69.33
2023-03-22T09:32:32.209Z,67.73
2023-03-22T09:35:08.900Z,65.76
2023-03-22T09:37:53.513Z,66.69
2023-03-22T09:40:29.799Z,65.76
2023-03-22T09:43:06.257Z,65.82
2023-03-22T09:45:44.304Z,64.44
2023-03-22T09:48:22.343Z,65.57
2023-03-22T09:50:57.034Z,65.83
2023-03-22T09:53:32.925Z,65.51
2023-03-22T09:56:12.792Z,65.20
2023-03-22T09:58:51.592Z,65.69
2023-03-22T10:01:35.450Z,64.41
2023-03-22T10:04:27.327Z,65.86
2023-03-22T10:07:12.209Z,64.95
2023-03-22T10:09:54.847Z,64.63
2023-03-22T10:12:31.435Z,65.24
2023-03-22T10:15:07.868Z,64.95
2023-03-22T10:17:45.746Z,65.75
2023-03-22T10:20:42.368Z,64.97
2023-03-22T10:23:19.417Z,63.36
2023-03-22T10:25:53.907Z,61.63
2023-03-22T10:28:32.902Z,59.22
2023-03-22T10:31:06.869Z,61.11
2023-03-22T10:33:50.227Z,60.78
2023-03-22T10:36:28.655Z,62.30
2023-03-22T10:39:05.543Z,59.99
2023-03-22T10:41:39.113Z,59.69
2023-03-22T10:44:18.278Z,59.04
2023-03-22T10:46:53.351Z,58.58
2023-03-22T10:49:31.728Z,59.85
2023-03-22T10:52:18.401Z,60.64
2023-03-22T10:54:51.631Z,58.86
2023-03-22T10:57:25.807Z,59.58
2023-03-22T10:59:58.964Z,58.03
2023-03-22T11:02:33.793Z,58.80
2023-03-22T11:05:08.138Z,58.65
2023-03-22T11:07:45.485Z,58.92
2023-03-22T11:10:31.423Z,57.71
2023-03-22T11:13:21.497Z,56.69
2023-03-22T11:15:59.945Z,56.89
2023-03-22T11:18:34.931Z,57.47
2023-03-22T11:21:11.153Z,57.62
2023-03-22T11:23:55.422Z,56.98
2023-03-22T11:26:32.136Z,57.43
2023-03-22T11:29:14.284Z,57.59
2023-03-22T11:31:57.356Z,57.57
2023-03-22T11:34:32.105Z,56.71
2023-03-22T11:37:09.548Z,57.76
2023-03-22T11:39:48.507Z,57.08
2023-03-22T11:42:22.387Z,57.74
2023-03-22T11:44:57.134Z,57.39
2023-03-22T11:47:37.880Z,57.01
2023-03-22T11:50:26.332Z,57.31
2023-03-22T11:53:02.800Z,57.95
2023-03-22T11:55:37.931Z,57.11
2023-03-22T11:58:26.185Z,55.24
2023-03-22T12:01:03.195Z,55.91
2023-03-22T12:03:39.832Z,56.68
2023-03-22T12:06:22.134Z,57.58
2023-03-22T12:08:59.833Z,58.02
2023-03-22T12:11:38.917Z,56.68
2023-03-22T12:14:20.418Z,56.46
2023-03-22T12:16:59.105Z,54.40
2023-03-22T12:19:45.099Z,54.35
2023-03-22T12:22:22.017Z,54.61
2023-03-22T12:24:55.194Z,54.66
2023-03-22T12:27:34.301Z,55.46
2023-03-22T12:30:13.855Z,54.21
2023-03-22T12:32:51.697Z,55.33
2023-03-22T12:35:28.363Z,53.86
2023-03-22T12:38:08.196Z,54.30
2023-03-22T12:40:43.175Z,55.09
2023-03-22T12:43:25.855Z,54.98
2023-03-22T12:46:02.274Z,54.88
2023-03-22T12:48:39.845Z,55.68
2023-03-22T12:51:15.547Z,55.62
2023-03-22T12:53:52.163Z,56.14
2023-03-22T12:56:29.972Z,55.05
2023-03-22T12:59:07.665Z,55.53
2023-03-22T13:01:47.646Z,54.93
2023-03-22T13:04:51.305Z,54.48
2023-03-22T13:07:54.599Z,54.65
2023-03-22T13:11:00.472Z,52.66
2023-03-22T13:13:42.671Z,52.80
2023-03-22T13:16:22.604Z,54.60
2023-03-22T13:19:03.836Z,53.77
2023-03-22T13:21:39.833Z,54.58
2023-03-22T13:24:24.232Z,55.15
2023-03-22T13:27:00.256Z,54.99
2023-03-22T13:29:37.733Z,54.64
2023-03-22T13:32:30.655Z,55.24
2023-03-22T13:35:03.922Z,55.00
2023-03-22T13:37:51.320Z,53.68
2023-03-22T13:40:31.230Z,55.01
2023-03-22T13:43:23.607Z,53.84
2023-03-22T13:46:08.762Z,52.72
2023-03-22T13:48:55.384Z,52.03
2023-03-22T13:51:32.055Z,51.87
2023-03-22T13:54:09.252Z,52.28
2023-03-22T13:56:56.528Z,52.53
2023-03-22T13:59:33.906Z,53.76
2023-03-22T14:02:18.477Z,50.50
2023-03-22T14:04:56.131Z,51.47
2023-03-22T14:07:34.575Z,51.53
2023-03-22T14:10:15.455Z,52.33
2023-03-22T14:12:52.624Z,53.12
2023-03-22T14:15:28.154Z,54.15
2023-03-22T14:18:04.668Z,54.45
2023-03-22T14:20:41.063Z,54.26
